createdAt,value
2016-05-27T00:00:22.762Z,0
2016-05-27T00:01:22.827Z,0
2016-05-27T00:02:22.767Z,0
2016-05-27T00:03:22.770Z,0
2016-05-27T00:04:23.054Z,0
2016-05-27T00:05:22.619Z,0
2016-05-27T00:06:22.825Z,0
2016-05-27T00:07:22.640Z,0
2016-05-27T00:08:22.783Z,0
2016-05-27T00:09:22.802Z,0
2016-05-27T00:10:22.805Z,0
2016-05-27T00:11:22.791Z,0
2016-05-27T00:12:22.638Z,0
2016-05-27T00:13:22.812Z,0
2016-05-27T00:14:22.988Z,0
2016-05-27T00:15:22.958Z,0
2016-05-27T00:16:23.023Z,0
2016-05-27T00:17:25.932Z,0
2016-05-27T00:18:22.904Z,0
2016-05-27T00:19:22.954Z,0
2016-05-27T00:20:22.957Z,0
2016-05-27T00:21:23.068Z,0
2016-05-27T00:22:23.023Z,0
2016-05-27T00:23:22.636Z,0
2016-05-27T00:24:23.015Z,0
2016-05-27T00:25:22.970Z,0
2016-05-27T00:26:22.973Z,0
2016-05-27T00:27:23.022Z,0
2016-05-27T00:28:22.946Z,0
2016-05-27T00:29:22.964Z,0
2016-05-27T00:30:22.998Z,0
2016-05-27T00:31:23.111Z,0
2016-05-27T00:32:22.848Z,0
2016-05-27T00:33:23.647Z,0
2016-05-27T00:34:22.978Z,0
2016-05-27T00:35:22.964Z,0
2016-05-27T00:36:22.936Z,0
2016-05-27T00:37:22.861Z,0
2016-05-27T00:38:22.895Z,0
2016-05-27T00:39:22.929Z,0
2016-05-27T00:40:22.791Z,0
2016-05-27T00:41:22.888Z,0
2016-05-27T00:42:22.733Z,0
2016-05-27T00:43:22.940Z,0
2016-05-27T00:44:22.583Z,0
2016-05-27T00:45:22.914Z,0
2016-05-27T00:46:22.963Z,0
2016-05-27T00:47:22.919Z,0
2016-05-27T00:48:23.843Z,0
2016-05-27T00:49:22.941Z,0
2016-05-27T00:50:22.927Z,0
2016-05-27T00:51:23.008Z,0
2016-05-27T00:52:22.776Z,0
2016-05-27T00:53:22.935Z,0
2016-05-27T00:54:22.938Z,0
2016-05-27T00:55:22.956Z,0
2016-05-27T00:56:23.021Z,0
2016-05-27T00:57:22.931Z,0
2016-05-27T00:58:22.792Z,0
2016-05-27T00:59:22.780Z,0
2016-05-27T01:00:22.782Z,0
2016-05-27T01:01:22.800Z,0
2016-05-27T01:02:22.960Z,0
2016-05-27T01:03:22.978Z,0
2016-05-27T01:04:23.778Z,0
2016-05-27T01:05:22.952Z,0
2016-05-27T01:06:22.986Z,0
2016-05-27T01:07:22.817Z,0
2016-05-27T01:08:22.960Z,0
2016-05-27T01:09:22.822Z,0
2016-05-27T01:10:22.980Z,0
2016-05-27T01:11:22.983Z,0
2016-05-27T01:12:23.018Z,0
2016-05-27T01:13:22.833Z,0
2016-05-27T01:14:22.992Z,0
2016-05-27T01:15:23.010Z,0
2016-05-27T01:16:23.091Z,0
2016-05-27T01:17:23.016Z,0
2016-05-27T01:18:22.863Z,0
2016-05-27T01:19:23.287Z,0
2016-05-27T01:20:22.868Z,0
2016-05-27T01:21:23.057Z,0
2016-05-27T01:22:23.046Z,0
2016-05-27T01:23:22.734Z,0
2016-05-27T01:24:23.112Z,0
2016-05-27T01:25:26.099Z,0
2016-05-27T01:26:23.212Z,0
2016-05-27T01:27:23.199Z,0
2016-05-27T01:28:23.077Z,0
2016-05-27T01:29:23.079Z,0
2016-05-27T01:30:23.067Z,0
2016-05-27T01:31:23.115Z,0
2016-05-27T01:32:23.040Z,0
2016-05-27T01:33:22.887Z,0
2016-05-27T01:34:23.374Z,0
2016-05-27T01:35:23.048Z,0
2016-05-27T01:36:23.207Z,0
2016-05-27T01:37:23.273Z,0
2016-05-27T01:38:23.134Z,0
2016-05-27T01:39:23.122Z,0
2016-05-27T01:40:23.061Z,0
2016-05-27T01:41:22.971Z,0
2016-05-27T01:42:23.083Z,0
2016-05-27T01:43:23.070Z,0
2016-05-27T01:44:23.104Z,0
2016-05-27T01:45:23.091Z,0
2016-05-27T01:46:23.172Z,0
2016-05-27T01:47:23.096Z,0
2016-05-27T01:48:23.208Z,0
2016-05-27T01:49:23.448Z,0
2016-05-27T01:50:22.970Z,0
2016-05-27T01:51:23.039Z,0
2016-05-27T01:52:22.998Z,0
2016-05-27T01:53:23.176Z,0
2016-05-27T01:54:23.196Z,0
2016-05-27T01:55:23.222Z,0
2016-05-27T01:56:23.168Z,0
2016-05-27T01:57:23.225Z,0
2016-05-27T01:58:23.235Z,0
2016-05-27T01:59:23.259Z,0
2016-05-27T02:00:23.109Z,0
2016-05-27T02:01:23.380Z,0
2016-05-27T02:02:23.134Z,0
2016-05-27T02:03:23.515Z,0
2016-05-27T02:04:23.145Z,0
2016-05-27T02:05:23.289Z,0
2016-05-27T02:06:23.277Z,0
2016-05-27T02:07:22.984Z,0
2016-05-27T02:08:23.145Z,0
2016-05-27T02:09:23.178Z,0
2016-05-27T02:10:23.307Z,0
2016-05-27T02:11:23.309Z,0
2016-05-27T02:12:23.313Z,0
2016-05-27T02:13:23.363Z,0
2016-05-27T02:14:23.365Z,0
2016-05-27T02:15:23.305Z,0
2016-05-27T02:16:23.168Z,0
2016-05-27T02:17:23.327Z,0
2016-05-27T02:18:23.189Z,0
2016-05-27T02:19:23.364Z,0
2016-05-27T02:20:23.022Z,0
2016-05-27T02:21:23.399Z,0
2016-05-27T02:22:23.356Z,0
2016-05-27T02:23:23.359Z,0
2016-05-27T02:24:23.362Z,0
2016-05-27T02:25:23.364Z,0
2016-05-27T02:26:23.398Z,0
2016-05-27T02:27:23.369Z,0
2016-05-27T02:28:23.372Z,0
2016-05-27T02:29:23.390Z,0
2016-05-27T02:30:23.362Z,0
2016-05-27T02:31:23.364Z,0
2016-05-27T02:32:23.383Z,0
2016-05-27T02:33:23.306Z,0
2016-05-27T02:34:23.685Z,0
2016-05-27T02:35:23.406Z,0
2016-05-27T02:36:23.378Z,0
2016-05-27T02:37:23.396Z,0
2016-05-27T02:38:23.228Z,0
2016-05-27T02:39:23.402Z,0
2016-05-27T02:40:23.435Z,0
2016-05-27T02:41:23.125Z,0
2016-05-27T02:42:23.410Z,0
2016-05-27T02:43:23.444Z,0
2016-05-27T02:44:23.275Z,0
2016-05-27T02:45:23.433Z,0
2016-05-27T02:46:23.420Z,0
2016-05-27T02:47:23.438Z,0
2016-05-27T02:48:23.582Z,0
2016-05-27T02:49:23.616Z,0
2016-05-27T02:50:23.463Z,0
2016-05-27T02:51:23.324Z,0
2016-05-27T02:52:23.124Z,0
2016-05-27T02:53:23.440Z,0
2016-05-27T02:54:23.442Z,0
2016-05-27T02:55:23.288Z,0
2016-05-27T02:56:23.463Z,0
2016-05-27T02:57:23.450Z,0
2016-05-27T02:58:23.453Z,0
2016-05-27T02:59:23.299Z,0
2016-05-27T03:00:23.474Z,4
2016-05-27T03:01:23.352Z,4
2016-05-27T03:02:23.307Z,4
2016-05-27T03:03:23.326Z,4
2016-05-27T03:04:23.312Z,0
2016-05-27T03:05:23.315Z,0
2016-05-27T03:06:23.537Z,4
2016-05-27T03:07:23.337Z,4
2016-05-27T03:08:23.339Z,4
2016-05-27T03:09:23.498Z,4
2016-05-27T03:10:23.517Z,4
2016-05-27T03:11:23.331Z,4
2016-05-27T03:12:23.506Z,4
2016-05-27T03:13:23.539Z,8
2016-05-27T03:14:23.528Z,8
2016-05-27T03:15:23.530Z,4
2016-05-27T03:16:23.533Z,8
2016-05-27T03:17:23.519Z,8
2016-05-27T03:18:23.522Z,12
2016-05-27T03:19:24.291Z,12
2016-05-27T03:20:23.513Z,16
2016-05-27T03:21:23.624Z,16
2016-05-27T03:22:23.221Z,20
2016-05-27T03:23:23.536Z,20
2016-05-27T03:24:23.538Z,24
2016-05-27T03:25:23.572Z,24
2016-05-27T03:26:23.559Z,28
2016-05-27T03:27:23.406Z,36
2016-05-27T03:28:23.549Z,36
2016-05-27T03:29:23.240Z,48
2016-05-27T03:30:23.398Z,52
2016-05-27T03:31:23.620Z,64
2016-05-27T03:32:23.420Z,72
2016-05-27T03:33:23.422Z,80
2016-05-27T03:34:23.581Z,88
2016-05-27T03:35:23.584Z,100
2016-05-27T03:36:23.601Z,108
2016-05-27T03:37:23.589Z,116
2016-05-27T03:38:23.576Z,128
2016-05-27T03:39:23.578Z,140
2016-05-27T03:40:23.581Z,156
2016-05-27T03:41:23.647Z,172
2016-05-27T03:42:23.603Z,188
2016-05-27T03:43:23.589Z,196
2016-05-27T03:44:23.623Z,200
2016-05-27T03:45:23.595Z,208
2016-05-27T03:46:23.441Z,220
2016-05-27T03:47:23.616Z,236
2016-05-27T03:48:23.556Z,252
2016-05-27T03:49:23.746Z,264
2016-05-27T03:50:23.624Z,276
2016-05-27T03:51:23.674Z,292
2016-05-27T03:52:23.613Z,308
2016-05-27T03:53:23.476Z,328
2016-05-27T03:54:23.635Z,348
2016-05-27T03:55:23.621Z,368
2016-05-27T03:56:23.671Z,380
2016-05-27T03:57:23.658Z,396
2016-05-27T03:58:23.645Z,416
2016-05-27T03:59:23.648Z,440
2016-05-27T04:00:23.495Z,460
2016-05-27T04:01:23.715Z,476
2016-05-27T04:02:23.640Z,492
2016-05-27T04:03:23.659Z,516
2016-05-27T04:04:23.802Z,540
2016-05-27T04:05:23.648Z,564
2016-05-27T04:06:23.526Z,596
2016-05-27T04:07:23.654Z,624
2016-05-27T04:08:23.672Z,648
2016-05-27T04:09:23.675Z,676
2016-05-27T04:10:23.678Z,692
2016-05-27T04:11:23.681Z,704
2016-05-27T04:12:23.698Z,716
2016-05-27T04:13:23.686Z,740
2016-05-27T04:14:23.532Z,796
2016-05-27T04:15:23.535Z,888
2016-05-27T04:16:23.709Z,996
2016-05-27T04:17:23.697Z,1108
2016-05-27T04:18:23.871Z,1216
2016-05-27T04:19:23.967Z,1312
2016-05-27T04:20:23.705Z,1384
2016-05-27T04:21:23.754Z,1440
2016-05-27T04:22:23.710Z,1480
2016-05-27T04:23:23.588Z,1524
2016-05-27T04:24:23.730Z,1572
2016-05-27T04:25:23.734Z,1616
2016-05-27T04:26:23.752Z,1672
2016-05-27T04:27:23.723Z,1728
2016-05-27T04:28:23.757Z,1784
2016-05-27T04:29:23.744Z,1848
2016-05-27T04:30:23.746Z,1920
2016-05-27T04:31:23.812Z,2004
2016-05-27T04:32:23.752Z,2092
2016-05-27T04:33:23.598Z,2164
2016-05-27T04:34:23.836Z,2220
2016-05-27T04:35:23.589Z,2264
2016-05-27T04:36:23.684Z,2316
2016-05-27T04:37:23.750Z,2368
2016-05-27T04:38:23.768Z,2424
2016-05-27T04:39:23.475Z,2512
2016-05-27T04:40:23.773Z,2564
2016-05-27T04:41:23.823Z,2644
2016-05-27T04:42:23.764Z,2720
2016-05-27T04:43:23.782Z,2792
2016-05-27T04:44:23.769Z,2876
2016-05-27T04:45:23.772Z,2956
2016-05-27T04:46:23.665Z,3040
2016-05-27T04:47:23.777Z,3116
2016-05-27T04:48:23.795Z,3204
2016-05-27T04:49:24.907Z,3284
2016-05-27T04:50:23.644Z,3360
2016-05-27T04:51:23.819Z,3428
2016-05-27T04:52:23.822Z,3484
2016-05-27T04:53:23.808Z,3508
2016-05-27T04:54:23.515Z,3516
2016-05-27T04:55:23.658Z,3536
2016-05-27T04:56:23.848Z,3528
2016-05-27T04:57:23.835Z,3520
2016-05-27T04:58:23.822Z,3528
2016-05-27T04:59:23.825Z,3504
2016-05-27T05:00:23.515Z,3468
2016-05-27T05:01:23.862Z,3436
2016-05-27T05:02:23.832Z,3380
2016-05-27T05:03:23.679Z,3316
2016-05-27T05:04:23.682Z,3236
2016-05-27T05:05:23.840Z,3112
2016-05-27T05:06:23.875Z,2956
2016-05-27T05:07:23.846Z,2824
2016-05-27T05:08:23.849Z,2752
2016-05-27T05:09:23.726Z,2720
2016-05-27T05:10:23.854Z,2696
2016-05-27T05:11:23.732Z,2700
2016-05-27T05:12:23.860Z,2752
2016-05-27T05:13:23.848Z,2880
2016-05-27T05:14:23.865Z,3068
2016-05-27T05:15:23.868Z,3264
2016-05-27T05:16:23.699Z,3456
2016-05-27T05:17:23.873Z,3624
2016-05-27T05:18:23.736Z,3748
2016-05-27T05:19:23.957Z,3772
2016-05-27T05:20:23.897Z,3776
2016-05-27T05:21:23.743Z,3748
2016-05-27T05:22:23.746Z,3740
2016-05-27T05:23:23.733Z,3704
2016-05-27T05:24:23.955Z,3704
2016-05-27T05:25:23.894Z,3732
2016-05-27T05:26:23.960Z,3760
2016-05-27T05:27:23.744Z,3824
2016-05-27T05:28:23.919Z,3896
2016-05-27T05:29:23.750Z,3968
2016-05-27T05:30:23.923Z,4008
2016-05-27T05:31:23.958Z,4036
2016-05-27T05:32:23.914Z,4032
2016-05-27T05:33:24.307Z,3992
2016-05-27T05:34:23.951Z,3916
2016-05-27T05:35:23.954Z,3868
2016-05-27T05:36:23.971Z,3816
2016-05-27T05:37:23.646Z,3704
2016-05-27T05:38:23.962Z,3544
2016-05-27T05:39:23.792Z,3456
2016-05-27T05:40:23.967Z,3412
2016-05-27T05:41:24.047Z,3424
2016-05-27T05:42:23.973Z,3448
2016-05-27T05:43:23.803Z,3444
2016-05-27T05:44:23.977Z,3456
2016-05-27T05:45:23.980Z,3424
2016-05-27T05:46:23.983Z,3408
2016-05-27T05:47:23.813Z,3436
2016-05-27T05:48:23.831Z,3516
2016-05-27T05:49:24.116Z,3636
2016-05-27T05:50:23.978Z,3788
2016-05-27T05:51:23.996Z,3952
2016-05-27T05:52:23.827Z,4096
2016-05-27T05:53:23.844Z,4204
2016-05-27T05:54:24.005Z,4252
2016-05-27T05:55:24.007Z,4268
2016-05-27T05:56:23.900Z,4264
2016-05-27T05:57:23.996Z,4256
2016-05-27T05:58:24.015Z,4288
2016-05-27T05:59:24.018Z,4376
2016-05-27T06:00:24.036Z,4508
2016-05-27T06:01:24.071Z,4804
2016-05-27T06:02:24.041Z,5108
2016-05-27T06:03:24.029Z,6732
2016-05-27T06:04:23.890Z,6988
2016-05-27T06:05:24.237Z,7236
2016-05-27T06:06:24.146Z,6196
2016-05-27T06:07:24.071Z,8012
2016-05-27T06:08:24.073Z,7396
2016-05-27T06:09:23.920Z,9008
2016-05-27T06:10:24.063Z,8296
2016-05-27T06:11:24.018Z,11484
2016-05-27T06:12:24.099Z,9256
2016-05-27T06:13:23.915Z,8380
2016-05-27T06:14:24.089Z,9404
2016-05-27T06:15:24.092Z,7684
2016-05-27T06:16:24.188Z,9080
2016-05-27T06:17:24.098Z,8724
2016-05-27T06:18:24.037Z,8648
2016-05-27T06:19:24.633Z,8036
2016-05-27T06:20:24.122Z,8772
2016-05-27T06:21:24.155Z,7548
2016-05-27T06:22:24.127Z,7200
2016-05-27T06:23:24.129Z,7096
2016-05-27T06:24:24.147Z,7080
2016-05-27T06:25:24.135Z,7072
2016-05-27T06:26:24.152Z,6940
2016-05-27T06:27:24.171Z,6724
2016-05-27T06:28:24.158Z,6436
2016-05-27T06:29:24.161Z,6196
2016-05-27T06:30:24.179Z,6132
2016-05-27T06:31:24.041Z,5836
2016-05-27T06:32:24.185Z,5776
2016-05-27T06:33:24.499Z,5828
2016-05-27T06:34:24.518Z,5972
2016-05-27T06:35:24.052Z,6340
2016-05-27T06:36:24.195Z,6112
2016-05-27T06:37:24.057Z,6112
2016-05-27T06:38:24.216Z,6100
2016-05-27T06:39:24.250Z,6216
2016-05-27T06:40:24.082Z,5832
2016-05-27T06:41:24.303Z,5496
2016-05-27T06:42:24.242Z,5144
2016-05-27T06:43:24.090Z,4916
2016-05-27T06:44:24.232Z,4976
2016-05-27T06:45:24.266Z,5016
2016-05-27T06:46:24.331Z,5056
2016-05-27T06:47:24.272Z,5304
2016-05-27T06:48:24.275Z,5564
2016-05-27T06:49:24.449Z,5716
2016-05-27T06:50:24.264Z,6020
2016-05-27T06:51:24.158Z,6432
2016-05-27T06:52:24.285Z,6804
2016-05-27T06:53:24.147Z,7248
2016-05-27T06:54:24.338Z,7472
2016-05-27T06:55:24.308Z,7804
2016-05-27T06:56:24.172Z,8012
2016-05-27T06:57:24.330Z,8252
2016-05-27T06:58:24.349Z,8688
2016-05-27T06:59:26.444Z,9068
2016-05-27T07:00:24.337Z,8600
2016-05-27T07:01:24.419Z,8428
2016-05-27T07:02:24.360Z,8228
2016-05-27T07:03:24.205Z,8548
2016-05-27T07:04:24.629Z,9212
2016-05-27T07:05:24.352Z,9680
2016-05-27T07:06:24.370Z,11464
2016-05-27T07:07:24.372Z,9908
2016-05-27T07:08:24.376Z,9304
2016-05-27T07:09:25.581Z,9308
2016-05-27T07:10:24.412Z,9120
2016-05-27T07:11:24.289Z,9136
2016-05-27T07:12:24.417Z,9480
2016-05-27T07:13:24.248Z,10076
2016-05-27T07:14:26.734Z,10204
2016-05-27T07:15:24.409Z,10792
2016-05-27T07:16:24.318Z,10812
2016-05-27T07:17:24.445Z,11192
2016-05-27T07:18:24.293Z,10468
2016-05-27T07:19:24.530Z,10688
2016-05-27T07:20:24.470Z,12456
2016-05-27T07:21:24.519Z,11380
2016-05-27T07:22:24.476Z,11148
2016-05-27T07:23:24.478Z,10456
2016-05-27T07:24:24.480Z,10524
2016-05-27T07:25:24.467Z,11028
2016-05-27T07:26:24.502Z,12124
2016-05-27T07:27:24.520Z,12536
2016-05-27T07:28:24.507Z,15616
2016-05-27T07:29:24.510Z,13948
2016-05-27T07:30:24.356Z,12552
2016-05-27T07:31:24.531Z,11564
2016-05-27T07:32:24.533Z,16448
2016-05-27T07:33:24.535Z,12352
2016-05-27T07:34:27.367Z,13404
2016-05-27T07:35:24.557Z,15872
2016-05-27T07:36:24.560Z,17056
2016-05-27T07:37:24.579Z,16288
2016-05-27T07:38:24.581Z,16992
2016-05-27T07:39:24.442Z,15032
2016-05-27T07:40:24.649Z,14296
2016-05-27T07:41:24.620Z,14500
2016-05-27T07:42:24.451Z,14432
2016-05-27T07:43:24.500Z,13316
2016-05-27T07:44:24.973Z,14532
2016-05-27T07:45:24.645Z,11080
2016-05-27T07:46:24.556Z,14056
2016-05-27T07:47:24.684Z,13432
2016-05-27T07:48:24.514Z,10940
2016-05-27T07:49:26.281Z,14044
2016-05-27T07:50:24.692Z,10276
2016-05-27T07:51:24.584Z,9812
2016-05-27T07:52:24.727Z,9532
2016-05-27T07:53:24.730Z,9960
2016-05-27T07:54:24.420Z,9336
2016-05-27T07:55:24.610Z,9364
2016-05-27T07:56:24.769Z,9440
2016-05-27T07:57:24.757Z,9532
2016-05-27T07:58:24.603Z,9688
2016-05-27T07:59:24.793Z,9840
2016-05-27T08:00:24.797Z,9532
2016-05-27T08:01:24.846Z,9988
2016-05-27T08:02:24.645Z,9376
2016-05-27T08:03:24.663Z,9200
2016-05-27T08:04:29.369Z,9644
2016-05-27T08:05:24.825Z,10576
2016-05-27T08:06:24.874Z,10904
2016-05-27T08:07:24.846Z,11796
2016-05-27T08:08:24.879Z,12652
2016-05-27T08:09:28.821Z,11944
2016-05-27T08:10:24.870Z,13684
2016-05-27T08:11:24.795Z,13292
2016-05-27T08:12:24.890Z,13512
2016-05-27T08:13:24.926Z,12720
2016-05-27T08:14:24.912Z,13500
2016-05-27T08:15:24.915Z,13324
2016-05-27T08:16:24.823Z,13268
2016-05-27T08:17:24.936Z,13180
2016-05-27T08:18:24.798Z,13012
2016-05-27T08:19:27.081Z,12688
2016-05-27T08:20:25.256Z,12716
2016-05-27T08:21:25.040Z,12500
2016-05-27T08:22:24.964Z,12328
2016-05-27T08:23:24.984Z,11704
2016-05-27T08:24:27.751Z,12100
2016-05-27T08:25:24.863Z,12348
2016-05-27T08:26:25.038Z,11084
2016-05-27T08:27:24.869Z,11796
2016-05-27T08:28:25.028Z,11748
2016-05-27T08:29:25.046Z,12076
2016-05-27T08:30:25.080Z,13172
2016-05-27T08:31:25.052Z,13264
2016-05-27T08:32:25.069Z,13900
2016-05-27T08:33:25.072Z,14020
2016-05-27T08:34:25.122Z,13480
2016-05-27T08:35:25.110Z,13464
2016-05-27T08:36:25.096Z,12464
2016-05-27T08:37:25.130Z,10964
2016-05-27T08:38:25.117Z,11280
2016-05-27T08:39:28.463Z,12416
2016-05-27T08:40:25.154Z,12500
2016-05-27T08:41:25.204Z,12680
2016-05-27T08:42:25.174Z,12836
2016-05-27T08:43:25.037Z,10248
2016-05-27T08:44:25.727Z,12372
2016-05-27T08:45:25.214Z,11708
2016-05-27T08:46:25.217Z,10024
2016-05-27T08:47:25.235Z,10528
2016-05-27T08:48:25.237Z,10060
2016-05-27T08:49:30.412Z,9696
2016-05-27T08:50:25.290Z,9472
2016-05-27T08:51:25.340Z,9292
2016-05-27T08:52:24.968Z,9212
2016-05-27T08:53:25.298Z,9224
2016-05-27T08:54:27.223Z,9208
2016-05-27T08:55:25.319Z,9284
2016-05-27T08:56:25.322Z,9336
2016-05-27T08:57:25.325Z,9352
2016-05-27T08:58:25.358Z,8740
2016-05-27T08:59:27.986Z,9476
2016-05-27T09:00:25.066Z,9692
2016-05-27T09:01:25.383Z,9924
2016-05-27T09:02:25.385Z,9376
2016-05-27T09:03:25.403Z,10356
2016-05-27T09:04:32.641Z,10476
2016-05-27T09:05:26.283Z,10432
2016-05-27T09:06:25.286Z,11072
2016-05-27T09:07:25.446Z,11212
2016-05-27T09:08:25.448Z,11500
2016-05-27T09:09:26.826Z,11244
2016-05-27T09:10:25.313Z,11164
2016-05-27T09:11:25.471Z,11692
2016-05-27T09:12:25.474Z,11852
2016-05-27T09:13:25.336Z,11928
2016-05-27T09:14:25.871Z,12408
2016-05-27T09:15:25.498Z,12808
2016-05-27T09:16:25.578Z,13232
2016-05-27T09:17:25.534Z,13520
2016-05-27T09:18:25.522Z,13816
2016-05-27T09:19:26.259Z,14104
2016-05-27T09:20:25.558Z,14376
2016-05-27T09:21:25.404Z,14504
2016-05-27T09:22:25.563Z,12940
2016-05-27T09:23:25.582Z,12156
2016-05-27T09:24:26.429Z,11988
2016-05-27T09:25:25.587Z,11936
2016-05-27T09:26:25.622Z,12740
2016-05-27T09:27:25.592Z,11660
2016-05-27T09:28:25.314Z,11296
2016-05-27T09:29:26.536Z,12132
2016-05-27T09:30:25.632Z,10860
2016-05-27T09:31:25.775Z,11004
2016-05-27T09:32:25.653Z,11300
2016-05-27T09:33:25.655Z,10932
2016-05-27T09:34:25.721Z,10564
2016-05-27T09:35:25.692Z,10460
2016-05-27T09:36:26.164Z,10576
2016-05-27T09:37:25.713Z,11452
2016-05-27T09:38:25.716Z,10796
2016-05-27T09:39:27.688Z,10564
2016-05-27T09:40:25.705Z,12168
2016-05-27T09:41:25.849Z,11708
2016-05-27T09:42:25.727Z,10676
2016-05-27T09:43:25.745Z,10492
2016-05-27T09:44:25.732Z,10564
2016-05-27T09:45:25.766Z,10544
2016-05-27T09:46:25.768Z,10524
2016-05-27T09:47:25.771Z,10488
2016-05-27T09:48:25.774Z,10748
2016-05-27T09:49:29.151Z,10968
2016-05-27T09:50:25.514Z,11296
2016-05-27T09:51:25.735Z,11400
2016-05-27T09:52:25.816Z,11780
2016-05-27T09:53:25.819Z,11728
2016-05-27T09:54:25.837Z,11788
2016-05-27T09:55:25.825Z,12384
2016-05-27T09:56:25.889Z,11764
2016-05-27T09:57:25.845Z,11204
2016-05-27T09:58:25.863Z,11404
2016-05-27T09:59:25.711Z,11168
2016-05-27T10:00:25.728Z,10868
2016-05-27T10:01:25.950Z,10880
2016-05-27T10:02:25.905Z,10888
2016-05-27T10:03:25.908Z,10892
2016-05-27T10:04:25.941Z,10896
2016-05-27T10:05:25.758Z,10224
2016-05-27T10:06:25.761Z,10632
2016-05-27T10:07:25.950Z,12444
2016-05-27T10:08:25.952Z,11084
2016-05-27T10:09:25.940Z,11596
2016-05-27T10:10:25.989Z,12644
2016-05-27T10:11:25.492Z,11044
2016-05-27T10:12:25.980Z,12952
2016-05-27T10:13:25.826Z,10932
2016-05-27T10:14:25.985Z,11140
2016-05-27T10:15:25.846Z,11352
2016-05-27T10:16:25.756Z,13180
2016-05-27T10:17:26.024Z,12560
2016-05-27T10:18:25.887Z,12592
2016-05-27T10:19:26.045Z,12508
2016-05-27T10:20:26.423Z,13016
2016-05-27T10:21:26.097Z,13364
2016-05-27T10:22:26.053Z,13236
2016-05-27T10:23:25.931Z,12064
2016-05-27T10:24:26.090Z,12904
2016-05-27T10:25:26.092Z,12704
2016-05-27T10:26:25.970Z,12632
2016-05-27T10:27:26.082Z,12268
2016-05-27T10:28:26.116Z,11860
2016-05-27T10:29:25.962Z,11188
2016-05-27T10:30:26.137Z,10284
2016-05-27T10:31:26.171Z,10236
2016-05-27T10:32:26.002Z,9360
2016-05-27T10:33:26.145Z,9948
2016-05-27T10:34:26.600Z,10072
2016-05-27T10:35:25.916Z,10312
2016-05-27T10:36:26.060Z,10208
2016-05-27T10:37:26.030Z,10128
2016-05-27T10:38:26.050Z,10128
2016-05-27T10:39:26.052Z,10300
2016-05-27T10:40:26.241Z,10624
2016-05-27T10:41:26.120Z,10832
2016-05-27T10:42:26.763Z,10784
2016-05-27T10:43:26.250Z,10900
2016-05-27T10:44:26.253Z,10788
2016-05-27T10:45:26.255Z,10468
2016-05-27T10:46:26.133Z,10160
2016-05-27T10:47:27.807Z,9984
2016-05-27T10:48:26.123Z,9952
2016-05-27T10:49:27.219Z,9708
2016-05-27T10:50:26.581Z,9012
2016-05-27T10:51:26.351Z,9176
2016-05-27T10:52:26.306Z,8960
2016-05-27T10:53:26.167Z,8740
2016-05-27T10:54:26.326Z,8468
2016-05-27T10:55:26.173Z,8212
2016-05-27T10:56:26.435Z,7972
2016-05-27T10:57:26.402Z,7976
2016-05-27T10:58:26.430Z,7224
2016-05-27T10:59:27.489Z,6548
2016-05-27T11:00:26.503Z,6040
2016-05-27T11:01:26.530Z,5976
2016-05-27T11:02:26.542Z,6048
2016-05-27T11:03:26.414Z,6808
2016-05-27T11:04:26.987Z,6472
2016-05-27T11:05:28.063Z,6016
2016-05-27T11:06:26.600Z,6192
2016-05-27T11:07:26.762Z,5932
2016-05-27T11:08:26.643Z,6240
2016-05-27T11:09:26.633Z,7320
2016-05-27T11:10:26.656Z,6084
2016-05-27T11:11:26.690Z,6120
2016-05-27T11:12:26.351Z,5888
2016-05-27T11:13:26.760Z,6012
2016-05-27T11:14:26.671Z,5752
2016-05-27T11:15:28.128Z,6132
2016-05-27T11:16:26.725Z,6120
2016-05-27T11:17:26.697Z,6688
2016-05-27T11:18:26.730Z,7072
2016-05-27T11:19:27.484Z,7524
2016-05-27T11:20:34.128Z,7972
2016-05-27T11:21:26.740Z,7732
2016-05-27T11:22:26.759Z,7888
2016-05-27T11:23:26.777Z,8492
2016-05-27T11:24:26.780Z,8332
2016-05-27T11:25:31.175Z,8324
2016-05-27T11:26:26.989Z,9032
2016-05-27T11:27:26.977Z,9040
2016-05-27T11:28:26.791Z,10012
2016-05-27T11:29:27.044Z,9976
2016-05-27T11:30:30.968Z,9772
2016-05-27T11:31:26.940Z,9684
2016-05-27T11:32:26.865Z,9680
2016-05-27T11:33:26.914Z,9832
2016-05-27T11:34:26.996Z,8972
2016-05-27T11:35:27.779Z,9812
2016-05-27T11:36:30.062Z,9432
2016-05-27T11:37:27.082Z,9432
2016-05-27T11:38:30.084Z,9120
2016-05-27T11:39:27.009Z,9172
2016-05-27T11:40:27.355Z,8228
2016-05-27T11:41:26.967Z,8164
2016-05-27T11:42:26.907Z,8480
2016-05-27T11:43:26.910Z,8196
2016-05-27T11:44:26.772Z,8468
2016-05-27T11:45:28.337Z,8828
2016-05-27T11:46:27.028Z,7056
2016-05-27T11:47:26.967Z,6848
2016-05-27T11:48:26.970Z,6784
2016-05-27T11:49:27.739Z,6812
2016-05-27T11:50:34.475Z,6988
2016-05-27T11:51:27.042Z,7192
2016-05-27T11:52:26.997Z,7352
2016-05-27T11:53:27.014Z,7704
2016-05-27T11:54:26.705Z,7676
2016-05-27T11:55:29.520Z,8476
2016-05-27T11:56:26.804Z,8124
2016-05-27T11:57:27.041Z,8112
2016-05-27T11:58:27.044Z,7464
2016-05-27T11:59:27.062Z,8816
2016-05-27T12:00:27.284Z,7312
2016-05-27T12:01:27.115Z,7076
2016-05-27T12:02:27.086Z,6612
2016-05-27T12:03:27.088Z,6468
2016-05-27T12:04:27.404Z,6640
2016-05-27T12:05:31.829Z,7932
2016-05-27T12:06:27.191Z,7264
2016-05-27T12:07:27.115Z,5564
2016-05-27T12:08:27.118Z,5244
2016-05-27T12:09:27.136Z,5032
2016-05-27T12:10:29.640Z,4872
2016-05-27T12:11:27.204Z,4820
2016-05-27T12:12:27.176Z,4780
2016-05-27T12:13:27.178Z,4708
2016-05-27T12:14:27.196Z,4600
2016-05-27T12:15:31.387Z,4480
2016-05-27T12:16:27.045Z,4344
2016-05-27T12:17:27.189Z,4128
2016-05-27T12:18:27.206Z,3872
2016-05-27T12:19:27.085Z,3604
2016-05-27T12:20:27.541Z,3396
2016-05-27T12:21:27.121Z,3292
2016-05-27T12:22:27.265Z,3264
2016-05-27T12:23:26.924Z,3228
2016-05-27T12:24:27.255Z,3192
2016-05-27T12:25:27.148Z,3136
2016-05-27T12:26:26.947Z,3088
2016-05-27T12:27:27.278Z,3112
2016-05-27T12:28:27.155Z,3116
2016-05-27T12:29:27.299Z,3112
2016-05-27T12:30:27.302Z,3148
2016-05-27T12:31:27.382Z,3212
2016-05-27T12:32:27.323Z,3328
2016-05-27T12:33:27.169Z,3432
2016-05-27T12:34:28.219Z,3500
2016-05-27T12:35:27.363Z,3444
2016-05-27T12:36:27.318Z,3204
2016-05-27T12:37:27.352Z,2864
2016-05-27T12:38:27.355Z,2556
2016-05-27T12:39:27.373Z,2384
2016-05-27T12:40:27.204Z,2280
2016-05-27T12:41:27.379Z,2192
2016-05-27T12:42:27.365Z,2260
2016-05-27T12:43:30.228Z,2312
2016-05-27T12:44:27.386Z,2328
2016-05-27T12:45:27.389Z,2280
2016-05-27T12:46:27.470Z,2212
2016-05-27T12:47:27.410Z,2124
2016-05-27T12:48:27.257Z,1964
2016-05-27T12:49:27.806Z,2000
2016-05-27T12:50:27.418Z,2124
2016-05-27T12:51:27.500Z,2260
2016-05-27T12:52:27.314Z,2372
2016-05-27T12:53:27.442Z,2452
2016-05-27T12:54:27.772Z,2524
2016-05-27T12:55:27.447Z,2616
2016-05-27T12:56:27.294Z,2656
2016-05-27T12:57:27.297Z,2652
2016-05-27T12:58:27.299Z,2736
2016-05-27T12:59:27.333Z,2976
2016-05-27T13:00:27.492Z,3340
2016-05-27T13:01:27.558Z,3716
2016-05-27T13:02:27.482Z,4232
2016-05-27T13:03:27.327Z,4972
2016-05-27T13:04:28.003Z,5800
2016-05-27T13:05:27.505Z,6268
2016-05-27T13:06:27.555Z,6204
2016-05-27T13:07:27.371Z,6008
2016-05-27T13:08:27.529Z,5696
2016-05-27T13:09:27.516Z,5540
2016-05-27T13:10:27.379Z,5796
2016-05-27T13:11:27.554Z,6132
2016-05-27T13:12:27.368Z,6324
2016-05-27T13:13:27.246Z,6388
2016-05-27T13:14:27.546Z,6364
2016-05-27T13:15:27.407Z,6296
2016-05-27T13:16:27.582Z,6092
2016-05-27T13:17:27.584Z,5848
2016-05-27T13:18:27.572Z,5592
2016-05-27T13:19:27.903Z,5396
2016-05-27T13:20:27.515Z,5232
2016-05-27T13:21:27.580Z,5208
2016-05-27T13:22:27.583Z,5248
2016-05-27T13:23:27.585Z,5456
2016-05-27T13:24:27.603Z,5684
2016-05-27T13:25:27.606Z,5864
2016-05-27T13:26:27.703Z,6012
2016-05-27T13:27:27.627Z,6196
2016-05-27T13:28:27.630Z,6460
2016-05-27T13:29:27.680Z,6876
2016-05-27T13:30:27.666Z,7236
2016-05-27T13:31:27.544Z,7564
2016-05-27T13:32:27.656Z,7832
2016-05-27T13:33:27.644Z,8012
2016-05-27T13:34:27.694Z,8224